Pagrindinis puslapis
METAR-TAF:

METAR-TAF

Oro uostai :

Pilzenas, Čekija

platuma: 49-40-31N, ilguma: 13-16-29E, Aukštis: 362 m

Dabartinis oras

Ataskaita buvo paskelbta 15 minutes, ne 09:48 UTC
Vėjas 1 kt nuo kintamojo kryptimis
Temperatūra 14°C
Drėgmė 88%
Slėgis 1023 hPa
Matomumas 10 km arba daugiau
Su prošvaistėmis ne aukštis 900 ft
Apsiniaukę ne aukštis 1300 ft
lietus

METAR: LKLN 110948Z AUTO VRB01KT 9999 -RA BKN009 OVC013 14/12 Q1023

Laikas: 12:03 (10:03 UTC)


TAF: trūkstamas

Orai ataskaitas ir orų prognozės (METAR, TAF).

turimą stotys yra geltonos ir raudonos taškus žemėlapyje.

Perkelti pele per norėdami pamatyti stoties vardą.

Tada spustelėkite, norėdami matyti oro stebėjimo ir prognozės.

Norėdami pakeisti žemėlapį: spustelėkite ant žalios mygtukų su juodo kryžiaus žemyn,; žalią mygtuką su brūkšneliu, jei norite nutolinti; arba žalių rodyklių gretimoms žemėlapius.


METAR-TAF: